Time;durP1;ratioP1;P1;durP2;ratioP2;P2;SDS_P1;SDS_P2;PMS_P1;PMS_P2;Temp;Humidity;BMP_temperature;BMP_pressure;BME280_temperature;BME280_humidity;BME280_pressure;Samples;Min_cycle;Max_cycle;Signal;HPM_P1;HPM_P2
2023/03/15 00:01:57;;;;;;;5.97;1.00;;;;;;;;;;5057432;28;20506;-72
2023/03/15 00:04:27;;;;;;;6.97;1.25;;;;;;;;;;5074901;28;20032;-71
2023/03/15 00:06:55;;;;;;;7.13;1.23;;;;;;;;;;5074029;28;20467;-70
2023/03/15 00:09:23;;;;;;;6.50;1.20;;;;;;;;;;5053312;28;20587;-70
2023/03/15 00:11:51;;;;;;;5.22;1.20;;;;;;;;;;5073047;27;20128;-71
2023/03/15 00:14:18;;;;;;;5.80;1.00;;;;;;;;;;5059631;28;20248;-71
2023/03/15 00:16:45;;;;;;;7.18;1.42;;;;;;;;;;5073026;28;20127;-71
2023/03/15 00:19:13;;;;;;;4.78;1.00;;;;;;;;;;5074605;28;20367;-71
2023/03/15 00:21:42;;;;;;;5.15;1.17;;;;;;;;;;5069878;27;20382;-72
2023/03/15 00:24:13;;;;;;;5.68;1.15;;;;;;;;;;5077183;28;20549;-71
2023/03/15 00:26:42;;;;;;;7.07;1.58;;;;;;;;;;5071047;28;20126;-72
2023/03/15 00:29:10;;;;;;;3.78;1.00;;;;;;;;;;5073700;28;20020;-71
2023/03/15 00:31:36;;;;;;;6.88;1.30;;;;;;;;;;5051111;28;20329;-71
2023/03/15 00:34:03;;;;;;;;;;;;;;;;;;5077719;27;20035;-71
2023/03/15 00:36:32;;;;;;;7.35;1.45;;;;;;;;;;5074227;27;19908;-71
2023/03/15 00:38:59;;;;;;;9.43;1.60;;;;;;;;;;5054899;28;20462;-71
2023/03/15 00:41:26;;;;;;;7.07;1.10;;;;;;;;;;5056814;28;20080;-71
2023/03/15 00:43:54;;;;;;;6.47;1.30;;;;;;;;;;5070684;28;20047;-71
2023/03/15 00:46:22;;;;;;;7.88;1.20;;;;;;;;;;5080203;28;20032;-71
2023/03/15 00:48:50;;;;;;;6.35;1.10;;;;;;;;;;5068797;28;20028;-71
2023/03/15 00:51:18;;;;;;;7.95;1.33;;;;;;;;;;5078517;27;20028;-71
2023/03/15 00:53:47;;;;;;;7.15;1.33;;;;;;;;;;5073464;28;20020;-69
2023/03/15 00:56:15;;;;;;;6.55;1.15;;;;;;;;;;5074732;28;20042;-70
2023/03/15 00:58:44;;;;;;;7.13;1.35;;;;;;;;;;5052296;28;20040;-71
2023/03/15 01:01:13;;;;;;;9.18;1.38;;;;;;;;;;5058303;28;20371;-70
2023/03/15 01:03:42;;;;;;;7.35;1.23;;;;;;;;;;5075080;28;20027;-70
2023/03/15 01:06:12;;;;;;;6.88;1.48;;;;;;;;;;5072772;27;20825;-70
2023/03/15 01:08:40;;;;;;;10.23;1.30;;;;;;;;;;5049753;28;20266;-70
2023/03/15 01:11:12;;;;;;;6.90;1.27;;;;;;;;;;5075322;27;20468;-70
2023/03/15 01:13:40;;;;;;;7.10;1.40;;;;;;;;;;5052444;28;20390;-70
2023/03/15 01:16:07;;;;;;;6.28;1.10;;;;;;;;;;5075110;28;20063;-70
2023/03/15 01:18:36;;;;;;;6.78;1.13;;;;;;;;;;5074910;27;20024;-71
2023/03/15 01:21:02;;;;;;;7.60;1.27;;;;;;;;;;5072116;28;20432;-71
2023/03/15 01:23:29;;;;;;;5.68;1.15;;;;;;;;;;5057743;28;20548;-71
2023/03/15 01:25:59;;;;;;;7.38;1.30;;;;;;;;;;5071434;28;20508;-71
2023/03/15 01:28:26;;;;;;;7.50;1.40;;;;;;;;;;5072061;28;20028;-72
2023/03/15 01:30:52;;;;;;;5.57;1.00;;;;;;;;;;5071331;28;20038;-71
2023/03/15 01:33:19;;;;;;;;;;;;;;;;;;5054845;28;20054;-71
2023/03/15 01:35:47;;;;;;;8.73;1.10;;;;;;;;;;5054289;28;20121;-71
2023/03/15 01:38:15;;;;;;;6.75;1.02;;;;;;;;;;5073634;28;20034;-71
2023/03/15 01:40:43;;;;;;;6.60;1.13;;;;;;;;;;5071845;28;20050;-71
2023/03/15 01:43:22;;;;;;;4.82;0.85;;;;;;;;;;5073232;28;20035;-71
2023/03/15 01:46:03;;;;;;;5.20;1.10;;;;;;;;;;5069926;28;20020;-71
2023/03/15 01:48:43;;;;;;;4.95;0.93;;;;;;;;;;5070290;28;20028;-71
2023/03/15 01:51:24;;;;;;;4.40;0.90;;;;;;;;;;5073711;28;20028;-71
2023/03/15 01:53:58;;;;;;;5.38;1.00;;;;;;;;;;5071878;28;20537;-71
2023/03/15 01:56:26;;;;;;;4.85;1.10;;;;;;;;;;5073122;28;20035;-71
2023/03/15 01:58:53;;;;;;;4.93;0.90;;;;;;;;;;5073733;28;20035;-71
2023/03/15 02:01:21;;;;;;;4.50;0.80;;;;;;;;;;5073372;28;20024;-70
2023/03/15 02:03:51;;;;;;;5.57;0.88;;;;;;;;;;5074231;28;20112;-71
2023/03/15 02:06:19;;;;;;;6.38;0.95;;;;;;;;;;5058163;28;21107;-71
2023/03/15 02:08:52;;;;;;;4.10;0.80;;;;;;;;;;5059151;28;20038;-71
2023/03/15 02:11:21;;;;;;;5.55;1.08;;;;;;;;;;5075661;28;20373;-71
2023/03/15 02:13:49;;;;;;;3.03;0.80;;;;;;;;;;5071739;28;20039;-71
2023/03/15 02:16:17;;;;;;;4.50;0.85;;;;;;;;;;5076517;28;20067;-71
2023/03/15 02:18:45;;;;;;;6.05;1.05;;;;;;;;;;5048982;28;20086;-71
2023/03/15 02:21:32;;;;;;;4.10;0.80;;;;;;;;;;5074369;28;20030;-71
2023/03/15 02:24:08;;;;;;;3.55;0.82;;;;;;;;;;5058502;28;20040;-71
2023/03/15 02:26:53;;;;;;;5.28;1.00;;;;;;;;;;5071526;28;20488;-71
2023/03/15 02:29:21;;;;;;;5.53;1.10;;;;;;;;;;5079666;28;20449;-72
2023/03/15 02:31:47;;;;;;;2.22;0.70;;;;;;;;;;5069386;28;20509;-71
2023/03/15 02:34:16;;;;;;;5.15;1.00;;;;;;;;;;5073171;28;20440;-71
2023/03/15 02:36:45;;;;;;;6.22;0.95;;;;;;;;;;5071217;28;20036;-71
2023/03/15 02:39:18;;;;;;;5.63;1.02;;;;;;;;;;5076026;28;20040;-71
2023/03/15 02:41:50;;;;;;;6.32;1.15;;;;;;;;;;5012553;28;20455;-72
2023/03/15 02:44:26;;;;;;;7.30;1.00;;;;;;;;;;5015031;28;20053;-71
2023/03/15 02:46:56;;;;;;;5.85;1.17;;;;;;;;;;5003008;28;20040;-70
2023/03/15 02:49:25;;;;;;;5.45;1.20;;;;;;;;;;5004851;28;20063;-70
2023/03/15 02:51:54;;;;;;;7.20;1.20;;;;;;;;;;5003356;28;20204;-71
2023/03/15 02:54:21;;;;;;;6.15;1.20;;;;;;;;;;5020876;28;20510;-71
2023/03/15 02:56:48;;;;;;;4.80;0.93;;;;;;;;;;5017903;28;20037;-70
2023/03/15 02:59:16;;;;;;;4.88;0.93;;;;;;;;;;5022039;28;20109;-71
2023/03/15 03:01:44;;;;;;;3.42;0.95;;;;;;;;;;5015904;28;20546;-71
2023/03/15 03:04:14;;;;;;;4.88;1.00;;;;;;;;;;5019234;28;20098;-71
2023/03/15 03:06:42;;;;;;;3.90;0.90;;;;;;;;;;5013469;28;20048;-71
2023/03/15 03:09:12;;;;;;;6.63;1.17;;;;;;;;;;5017881;28;20083;-71
2023/03/15 03:11:39;;;;;;;6.45;1.20;;;;;;;;;;5000813;28;20069;-71
2023/03/15 03:14:06;;;;;;;7.20;0.98;;;;;;;;;;5020355;28;20716;-71
2023/03/15 03:16:32;;;;;;;5.13;0.95;;;;;;;;;;5018529;28;20044;-70
2023/03/15 03:19:00;;;;;;;;;;;;;;;;;;5003304;28;20483;-71
2023/03/15 03:21:27;;;;;;;;;;;;;;;;;;5018564;28;19917;-70
2023/03/15 03:23:53;;;;;;;;;;;;;;;;;;5017307;28;21922;-70
2023/03/15 03:26:21;;;;;;;6.25;1.10;;;;;;;;;;5018233;28;20144;-70
2023/03/15 03:28:48;;;;;;;6.28;1.17;;;;;;;;;;5016545;28;20033;-70
2023/03/15 03:31:22;;;;;;;6.30;1.27;;;;;;;;;;5008367;28;20033;-70
2023/03/15 03:33:52;;;;;;;6.32;1.10;;;;;;;;;;5073498;28;20035;-71
2023/03/15 03:36:19;;;;;;;5.00;0.98;;;;;;;;;;5077930;27;20480;-70
2023/03/15 03:38:46;;;;;;;3.97;1.02;;;;;;;;;;5056037;28;20556;-70
2023/03/15 03:41:14;;;;;;;5.47;1.20;;;;;;;;;;5060962;28;20587;-70
2023/03/15 03:43:43;;;;;;;5.35;1.02;;;;;;;;;;5056094;28;20038;-70
2023/03/15 03:46:10;;;;;;;5.70;1.10;;;;;;;;;;5058310;28;20043;-70
2023/03/15 03:48:38;;;;;;;5.85;1.25;;;;;;;;;;5074418;28;20410;-71
2023/03/15 03:51:06;;;;;;;6.43;1.02;;;;;;;;;;5078141;27;20032;-70
2023/03/15 03:53:33;;;;;;;8.20;1.20;;;;;;;;;;5075509;27;20055;-71
2023/03/15 03:56:05;;;;;;;3.35;0.70;;;;;;;;;;5077787;28;20391;-70
2023/03/15 03:58:32;;;;;;;4.53;1.00;;;;;;;;;;5040886;28;20611;-70
2023/03/15 04:01:00;;;;;;;4.70;0.88;;;;;;;;;;5061301;28;20442;-70
2023/03/15 04:03:27;;;;;;;6.28;0.90;;;;;;;;;;5077961;28;20024;-70
2023/03/15 04:05:54;;;;;;;6.38;1.13;;;;;;;;;;5075331;28;20032;-71
2023/03/15 04:08:22;;;;;;;6.75;1.40;;;;;;;;;;5055053;28;20143;-71
2023/03/15 04:10:56;;;;;;;6.38;1.27;;;;;;;;;;5070656;27;20117;-70
2023/03/15 04:13:25;;;;;;;6.28;1.20;;;;;;;;;;5072209;27;20035;-70
2023/03/15 04:15:57;;;;;;;6.18;1.45;;;;;;;;;;5072662;27;20052;-70
2023/03/15 04:18:23;;;;;;;5.88;1.20;;;;;;;;;;5080443;28;20973;-70
2023/03/15 04:20:56;;;;;;;7.65;1.60;;;;;;;;;;5054639;28;20108;-70
2023/03/15 04:23:24;;;;;;;5.47;1.15;;;;;;;;;;5074858;28;20093;-70
2023/03/15 04:25:56;;;;;;;5.10;1.00;;;;;;;;;;5074250;28;20020;-70
2023/03/15 04:28:24;;;;;;;6.93;0.95;;;;;;;;;;5076010;27;20626;-70
2023/03/15 04:30:57;;;;;;;6.78;1.30;;;;;;;;;;5075221;28;20032;-67
2023/03/15 04:33:27;;;;;;;5.75;1.23;;;;;;;;;;5072870;27;20450;-70
2023/03/15 04:35:56;;;;;;;6.30;1.15;;;;;;;;;;5073850;27;22722;-71
2023/03/15 04:38:34;;;;;;;9.00;1.77;;;;;;;;;;5074889;27;20028;-71
2023/03/15 04:41:10;;;;;;;8.32;1.60;;;;;;;;;;5076377;27;21005;-70
2023/03/15 04:43:39;;;;;;;9.07;1.67;;;;;;;;;;5070691;27;20583;-71
2023/03/15 04:46:08;;;;;;;5.60;1.27;;;;;;;;;;5075321;28;20043;-70
2023/03/15 04:48:35;;;;;;;6.18;1.15;;;;;;;;;;5072630;27;20024;-70
2023/03/15 04:51:04;;;;;;;6.00;1.13;;;;;;;;;;5077643;28;20020;-70
2023/03/15 04:53:32;;;;;;;9.57;1.40;;;;;;;;;;5057411;28;20120;-70
2023/03/15 04:55:59;;;;;;;5.78;1.33;;;;;;;;;;5074927;27;20052;-71
2023/03/15 04:58:26;;;;;;;5.50;1.10;;;;;;;;;;5077015;28;20028;-70
2023/03/15 05:00:54;;;;;;;7.40;1.52;;;;;;;;;;5073749;28;20574;-71
2023/03/15 05:03:22;;;;;;;5.15;1.13;;;;;;;;;;5075437;28;20093;-70
2023/03/15 05:05:49;;;;;;;5.10;1.08;;;;;;;;;;5072903;28;20553;-70
2023/03/15 05:08:18;;;;;;;5.30;1.20;;;;;;;;;;5054245;28;20562;-70
2023/03/15 05:10:47;;;;;;;4.22;0.95;;;;;;;;;;5075442;28;20012;-70
2023/03/15 05:13:17;;;;;;;4.75;1.00;;;;;;;;;;5072352;28;20810;-70
2023/03/15 05:15:53;;;;;;;4.10;0.85;;;;;;;;;;5070526;28;20058;-70
2023/03/15 05:18:20;;;;;;;6.75;1.20;;;;;;;;;;5060256;28;20038;-70
2023/03/15 05:20:48;;;;;;;4.70;0.95;;;;;;;;;;5071417;28;20031;-70
2023/03/15 05:23:17;;;;;;;7.20;1.40;;;;;;;;;;5072917;28;20028;-70
2023/03/15 05:25:43;;;;;;;6.32;1.13;;;;;;;;;;5071831;28;20442;-70
2023/03/15 05:28:10;;;;;;;6.93;1.10;;;;;;;;;;5074439;28;21281;-71
2023/03/15 05:30:38;;;;;;;4.35;1.10;;;;;;;;;;5073649;28;20035;-70
2023/03/15 05:33:05;;;;;;;5.65;1.25;;;;;;;;;;5056662;28;20042;-70
2023/03/15 05:35:34;;;;;;;7.70;1.30;;;;;;;;;;5071897;28;20457;-70
2023/03/15 05:38:02;;;;;;;6.63;1.30;;;;;;;;;;5054241;28;20053;-70
2023/03/15 05:40:31;;;;;;;6.97;1.30;;;;;;;;;;5073668;28;20156;-70
2023/03/15 05:42:57;;;;;;;5.75;1.50;;;;;;;;;;5066222;28;20039;-70
2023/03/15 05:45:26;;;;;;;8.02;1.40;;;;;;;;;;5056568;28;20031;-70
2023/03/15 05:47:55;;;;;;;6.13;1.35;;;;;;;;;;5074023;28;20043;-70
2023/03/15 05:50:23;;;;;;;5.80;1.20;;;;;;;;;;5072237;28;20043;-70
2023/03/15 05:52:56;;;;;;;6.45;1.67;;;;;;;;;;5049292;28;20568;-71
2023/03/15 05:55:25;;;;;;;7.80;1.63;;;;;;;;;;5052132;28;20051;-70
2023/03/15 05:57:52;;;;;;;7.15;1.55;;;;;;;;;;5049992;28;20032;-70
2023/03/15 06:00:21;;;;;;;7.00;1.75;;;;;;;;;;5055916;28;20414;-72
2023/03/15 06:02:49;;;;;;;7.03;1.65;;;;;;;;;;5037923;28;20608;-70
2023/03/15 06:05:16;;;;;;;6.05;1.45;;;;;;;;;;5054613;28;20039;-69
2023/03/15 06:07:43;;;;;;;8.55;1.52;;;;;;;;;;5048306;28;20615;-71
2023/03/15 06:10:11;;;;;;;7.68;1.40;;;;;;;;;;5050646;28;20021;-71
2023/03/15 06:12:40;;;;;;;10.90;1.70;;;;;;;;;;5046953;28;20139;-70
2023/03/15 06:15:07;;;;;;;8.40;1.88;;;;;;;;;;5046781;28;20044;-70
2023/03/15 06:17:36;;;;;;;10.52;1.75;;;;;;;;;;5038240;28;20036;-70
2023/03/15 06:20:04;;;;;;;8.18;1.90;;;;;;;;;;5026610;28;20044;-70
2023/03/15 06:22:32;;;;;;;10.70;1.83;;;;;;;;;;5043620;28;20036;-70
2023/03/15 06:25:02;;;;;;;7.15;1.90;;;;;;;;;;5042230;28;20059;-71
2023/03/15 06:27:29;;;;;;;7.45;1.80;;;;;;;;;;5039235;28;20739;-71
2023/03/15 06:29:57;;;;;;;10.93;2.00;;;;;;;;;;5040690;28;20067;-71
2023/03/15 06:32:24;;;;;;;7.90;1.77;;;;;;;;;;5044618;28;20475;-69
2023/03/15 06:34:50;;;;;;;8.70;1.33;;;;;;;;;;5039295;28;20110;-70
2023/03/15 06:37:20;;;;;;;9.02;1.73;;;;;;;;;;5045275;28;20081;-69
2023/03/15 06:39:58;;;;;;;6.15;1.77;;;;;;;;;;5036725;28;20781;-70
2023/03/15 06:42:26;;;;;;;7.13;1.52;;;;;;;;;;5038521;28;20155;-70
2023/03/15 06:44:53;;;;;;;6.53;1.70;;;;;;;;;;5033636;28;20036;-70
2023/03/15 06:47:21;;;;;;;9.85;1.77;;;;;;;;;;5038563;28;20025;-70
2023/03/15 06:49:49;;;;;;;7.18;1.40;;;;;;;;;;5035429;28;20040;-71
2023/03/15 06:52:16;;;;;;;11.77;1.70;;;;;;;;;;5033891;28;20335;-71
2023/03/15 06:54:43;;;;;;;6.82;1.40;;;;;;;;;;5032802;28;20331;-69
2023/03/15 06:57:11;;;;;;;7.05;1.50;;;;;;;;;;5036212;28;20024;-70
2023/03/15 06:59:38;;;;;;;7.95;1.77;;;;;;;;;;5033803;28;20494;-70
2023/03/15 07:02:06;;;;;;;8.95;2.05;;;;;;;;;;5035232;28;20028;-70
2023/03/15 07:04:33;;;;;;;10.75;3.17;;;;;;;;;;5035227;28;20039;-71
2023/03/15 07:07:00;;;;;;;16.38;6.47;;;;;;;;;;5036448;28;20324;-71
2023/03/15 07:09:28;;;;;;;18.55;8.27;;;;;;;;;;5042860;28;20287;-71
2023/03/15 07:11:55;;;;;;;18.55;8.85;;;;;;;;;;5035453;28;20078;-71
2023/03/15 07:14:23;;;;;;;22.33;9.32;;;;;;;;;;5038655;28;20032;-70
2023/03/15 07:16:50;;;;;;;34.42;13.07;;;;;;;;;;5070993;27;20048;-71
2023/03/15 07:19:18;;;;;;;24.88;11.80;;;;;;;;;;5072986;28;20114;-70
2023/03/15 07:21:45;;;;;;;20.73;10.82;;;;;;;;;;5069358;28;20220;-70
2023/03/15 07:24:13;;;;;;;24.73;12.93;;;;;;;;;;5059505;28;20088;-70
2023/03/15 07:26:40;;;;;;;28.38;12.77;;;;;;;;;;5076310;27;20135;-70
2023/03/15 07:29:08;;;;;;;24.90;11.70;;;;;;;;;;5072367;28;20146;-70
2023/03/15 07:31:36;;;;;;;22.90;11.45;;;;;;;;;;5054498;28;20204;-70
2023/03/15 07:34:02;;;;;;;25.95;12.32;;;;;;;;;;5072528;28;20088;-70
2023/03/15 07:36:31;;;;;;;;;;;;;;;;;;5076711;28;20046;-70
2023/03/15 07:38:57;;;;;;;20.15;8.75;;;;;;;;;;5069984;27;19996;-69
2023/03/15 07:41:24;;;;;;;;;;;;;;;;;;5076118;28;20464;-70
2023/03/15 07:43:50;;;;;;;17.77;5.68;;;;;;;;;;5071830;28;20535;-71
2023/03/15 07:46:18;;;;;;;;;;;;;;;;;;5074504;27;20035;-71
2023/03/15 07:48:45;;;;;;;17.13;5.70;;;;;;;;;;5054334;28;20291;-70
2023/03/15 07:51:12;;;;;;;16.52;5.20;;;;;;;;;;5054002;28;20052;-70
2023/03/15 07:53:40;;;;;;;14.13;4.78;;;;;;;;;;5068389;28;20163;-69
2023/03/15 07:56:08;;;;;;;12.77;3.65;;;;;;;;;;5059973;28;20036;-71
2023/03/15 07:58:36;;;;;;;16.30;4.43;;;;;;;;;;5070178;28;20899;-70
2023/03/15 08:01:03;;;;;;;17.13;4.20;;;;;;;;;;5074505;28;20034;-70
2023/03/15 08:03:31;;;;;;;12.18;3.30;;;;;;;;;;5074996;27;20161;-70
2023/03/15 08:05:58;;;;;;;140.35;19.75;;;;;;;;;;5075093;27;20031;-70
2023/03/15 08:08:27;;;;;;;55.67;10.10;;;;;;;;;;5076743;28;20028;-71
2023/03/15 08:10:54;;;;;;;15.93;3.90;;;;;;;;;;5070716;28;20489;-69
2023/03/15 08:13:23;;;;;;;16.67;3.83;;;;;;;;;;5077083;28;20105;-70
2023/03/15 08:15:50;;;;;;;16.23;3.88;;;;;;;;;;5052416;28;20469;-70
2023/03/15 08:18:18;;;;;;;18.15;4.15;;;;;;;;;;5052571;28;20040;-70
2023/03/15 08:20:44;;;;;;;17.27;4.15;;;;;;;;;;5052353;28;20127;-70
2023/03/15 08:23:15;;;;;;;;;;;;;;;;;;5059359;28;20057;-69
2023/03/15 08:25:43;;;;;;;15.43;3.85;;;;;;;;;;5051190;28;20662;-70
2023/03/15 08:28:11;;;;;;;16.45;3.35;;;;;;;;;;5053759;28;20033;-70
2023/03/15 08:30:40;;;;;;;14.90;3.78;;;;;;;;;;5052703;28;20032;-69
2023/03/15 08:33:08;;;;;;;15.00;3.22;;;;;;;;;;5055506;28;20024;-70
2023/03/15 08:35:36;;;;;;;13.45;3.30;;;;;;;;;;5052175;28;20568;-71
2023/03/15 08:38:02;;;;;;;14.52;4.40;;;;;;;;;;5053815;28;20473;-71
2023/03/15 08:40:28;;;;;;;;;;;;;;;;;;5055769;28;20362;-70
2023/03/15 08:42:56;;;;;;;16.50;5.50;;;;;;;;;;5054525;28;20637;-70
2023/03/15 08:45:25;;;;;;;16.25;7.00;;;;;;;;;;5054390;28;20104;-70
2023/03/15 08:47:56;;;;;;;16.73;6.72;;;;;;;;;;5052269;28;20356;-70
2023/03/15 08:50:24;;;;;;;17.25;6.20;;;;;;;;;;5056008;28;20635;-71
2023/03/15 08:52:52;;;;;;;17.08;5.45;;;;;;;;;;5050336;28;20128;-70
2023/03/15 08:55:21;;;;;;;16.83;4.07;;;;;;;;;;5053950;28;20486;-70
2023/03/15 08:57:48;;;;;;;10.75;3.50;;;;;;;;;;5053825;28;20062;-69
2023/03/15 09:00:19;;;;;;;14.93;3.80;;;;;;;;;;5055183;28;20028;-70
2023/03/15 09:02:48;;;;;;;14.50;4.00;;;;;;;;;;5050569;28;20040;-71
2023/03/15 09:05:16;;;;;;;13.93;3.72;;;;;;;;;;5056039;28;20520;-71
2023/03/15 09:07:46;;;;;;;18.90;5.15;;;;;;;;;;5052196;28;20032;-71
2023/03/15 09:10:15;;;;;;;14.65;3.80;;;;;;;;;;5055566;28;20032;-71
2023/03/15 09:12:47;;;;;;;14.45;5.05;;;;;;;;;;5051806;28;20029;-71
2023/03/15 09:15:15;;;;;;;16.30;5.05;;;;;;;;;;5062056;28;20051;-71
2023/03/15 09:17:43;;;;;;;15.55;5.13;;;;;;;;;;5069788;28;20065;-71
2023/03/15 09:20:15;;;;;;;14.00;4.35;;;;;;;;;;5060286;28;20266;-70
2023/03/15 09:22:42;;;;;;;13.18;3.58;;;;;;;;;;5072029;27;20039;-71
2023/03/15 09:25:11;;;;;;;13.30;3.03;;;;;;;;;;5058418;28;20031;-70
2023/03/15 09:27:38;;;;;;;22.75;4.00;;;;;;;;;;5036685;28;20074;-70
2023/03/15 09:30:06;;;;;;;18.15;3.08;;;;;;;;;;5075230;28;20626;-71
2023/03/15 09:32:37;;;;;;;12.63;3.30;;;;;;;;;;5072631;27;20074;-69
2023/03/15 09:35:04;;;;;;;13.05;3.03;;;;;;;;;;5058552;28;20032;-69
2023/03/15 09:37:31;;;;;;;10.82;2.80;;;;;;;;;;5054501;28;20067;-71
2023/03/15 09:39:58;;;;;;;10.85;2.20;;;;;;;;;;5071341;28;20505;-69
2023/03/15 09:43:01;;;;;;;9.50;2.17;;;;;;;;;;5056479;28;20035;-70
2023/03/15 09:45:47;;;;;;;13.00;2.45;;;;;;;;;;4998620;28;21263;-70
2023/03/15 09:48:32;;;;;;;10.48;2.60;;;;;;;;;;5011831;28;20085;-70
2023/03/15 09:51:09;;;;;;;18.75;4.07;;;;;;;;;;5014019;28;20543;-69
2023/03/15 09:53:50;;;;;;;11.32;2.45;;;;;;;;;;5005748;28;20049;-70
2023/03/15 09:56:40;;;;;;;11.82;2.17;;;;;;;;;;4983844;28;20045;-70
2023/03/15 09:59:11;;;;;;;8.35;1.80;;;;;;;;;;5001528;28;20296;-69
2023/03/15 10:01:41;;;;;;;8.85;1.77;;;;;;;;;;4995635;28;20033;-70
2023/03/15 10:04:12;;;;;;;6.97;1.70;;;;;;;;;;4978470;28;20049;-70
2023/03/15 10:06:44;;;;;;;12.15;2.25;;;;;;;;;;4997506;28;20711;-69
2023/03/15 10:09:15;;;;;;;8.88;2.20;;;;;;;;;;5006655;28;20595;-70
2023/03/15 10:11:42;;;;;;;9.63;2.28;;;;;;;;;;4992873;28;20107;-72
2023/03/15 10:14:32;;;;;;;10.75;2.22;;;;;;;;;;5000067;28;20554;-71
2023/03/15 10:17:03;;;;;;;12.30;2.80;;;;;;;;;;5013089;28;20080;-71
2023/03/15 10:19:43;;;;;;;10.48;2.33;;;;;;;;;;5007984;28;20048;-71
2023/03/15 10:22:09;;;;;;;11.43;2.60;;;;;;;;;;5056185;28;20035;-70
2023/03/15 10:24:54;;;;;;;12.23;2.10;;;;;;;;;;5067617;28;20063;-71
2023/03/15 10:27:41;;;;;;;7.53;1.80;;;;;;;;;;5075093;28;20108;-70
2023/03/15 10:30:24;;;;;;;12.57;1.65;;;;;;;;;;5072560;28;20449;-70
2023/03/15 10:33:08;;;;;;;9.27;1.90;;;;;;;;;;5050609;28;20806;-71
2023/03/15 10:35:37;;;;;;;8.02;1.90;;;;;;;;;;5067212;28;20024;-70
2023/03/15 10:38:14;;;;;;;11.02;2.17;;;;;;;;;;5057819;28;20039;-70
2023/03/15 10:40:40;;;;;;;6.20;1.67;;;;;;;;;;5068620;28;20043;-70
2023/03/15 10:43:17;;;;;;;10.07;2.15;;;;;;;;;;5061580;28;20040;-71
2023/03/15 10:45:47;;;;;;;12.02;2.22;;;;;;;;;;5069939;28;20028;-70
2023/03/15 10:48:13;;;;;;;8.77;2.15;;;;;;;;;;5076983;28;20032;-70
2023/03/15 10:50:42;;;;;;;10.80;2.38;;;;;;;;;;5037280;28;20023;-70
2023/03/15 10:53:12;;;;;;;10.43;2.22;;;;;;;;;;5071846;28;20415;-70
2023/03/15 10:55:43;;;;;;;8.93;2.10;;;;;;;;;;5071780;28;20020;-70
2023/03/15 10:58:30;;;;;;;10.45;2.22;;;;;;;;;;5075160;28;20316;-70
2023/03/15 11:01:06;;;;;;;8.25;2.17;;;;;;;;;;5051510;28;20028;-70
2023/03/15 11:03:34;;;;;;;9.05;2.05;;;;;;;;;;5070719;28;20211;-70
2023/03/15 11:06:20;;;;;;;10.02;2.72;;;;;;;;;;5058362;28;20092;-70
2023/03/15 11:08:48;;;;;;;10.27;2.50;;;;;;;;;;5072977;27;20028;-69
2023/03/15 11:11:15;;;;;;;10.27;2.22;;;;;;;;;;5058924;28;20035;-70
2023/03/15 11:13:54;;;;;;;10.57;2.33;;;;;;;;;;5070779;28;20127;-70
2023/03/15 11:16:21;;;;;;;10.35;2.75;;;;;;;;;;5054965;28;20498;-69
2023/03/15 11:18:55;;;;;;;6.82;1.85;;;;;;;;;;5049836;28;20400;-70
2023/03/15 11:21:32;;;;;;;8.32;2.05;;;;;;;;;;5056229;28;20073;-70
2023/03/15 11:24:02;;;;;;;10.02;2.10;;;;;;;;;;5054850;28;20054;-70
2023/03/15 11:26:32;;;;;;;8.88;2.13;;;;;;;;;;5052853;28;20035;-70
2023/03/15 11:29:00;;;;;;;7.95;1.95;;;;;;;;;;5049088;28;20578;-70
2023/03/15 11:31:39;;;;;;;10.07;2.15;;;;;;;;;;5058696;28;20541;-71
2023/03/15 11:34:25;;;;;;;6.70;1.70;;;;;;;;;;5051367;28;20120;-70
2023/03/15 11:36:56;;;;;;;8.52;2.22;;;;;;;;;;5050919;28;21216;-70
2023/03/15 11:39:53;;;;;;;10.55;2.20;;;;;;;;;;5052583;28;20455;-71
2023/03/15 11:42:26;;;;;;;7.65;1.83;;;;;;;;;;5017819;28;20049;-70
2023/03/15 11:44:57;;;;;;;9.23;1.95;;;;;;;;;;4998509;28;20090;-70
2023/03/15 11:47:32;;;;;;;7.60;1.75;;;;;;;;;;5014768;28;20083;-70
2023/03/15 11:50:00;;;;;;;8.57;1.80;;;;;;;;;;5017882;28;20029;-71
2023/03/15 11:52:30;;;;;;;8.73;2.15;;;;;;;;;;5017873;28;20049;-71
2023/03/15 11:55:00;;;;;;;8.07;2.03;;;;;;;;;;5013236;28;20025;-70
2023/03/15 11:57:39;;;;;;;9.00;2.00;;;;;;;;;;4994574;28;20501;-71
2023/03/15 12:00:25;;;;;;;6.75;1.77;;;;;;;;;;5004434;28;20045;-70
2023/03/15 12:02:59;;;;;;;8.55;1.40;;;;;;;;;;5015472;28;20029;-72
2023/03/15 12:05:45;;;;;;;7.80;1.70;;;;;;;;;;5002123;28;20053;-71
2023/03/15 12:08:49;;;;;;;10.02;1.77;;;;;;;;;;5013212;28;20045;-70
2023/03/15 12:11:25;;;;;;;5.75;1.50;;;;;;;;;;4963819;28;20033;-70
2023/03/15 12:14:00;;;;;;;7.20;2.00;;;;;;;;;;5011070;28;20205;-70
2023/03/15 12:16:29;;;;;;;8.88;2.13;;;;;;;;;;5013553;28;20510;-70
2023/03/15 12:19:17;;;;;;;7.82;1.85;;;;;;;;;;5025424;28;20900;-70
2023/03/15 12:21:53;;;;;;;8.43;1.85;;;;;;;;;;5050699;28;20035;-70
2023/03/15 12:24:37;;;;;;;6.80;1.73;;;;;;;;;;5051009;28;20193;-71
2023/03/15 12:27:15;;;;;;;8.27;1.60;;;;;;;;;;5053154;28;20484;-71
2023/03/15 12:29:45;;;;;;;6.63;1.60;;;;;;;;;;5047781;28;20044;-71
2023/03/15 12:32:14;;;;;;;8.90;1.77;;;;;;;;;;5050311;28;20481;-71
2023/03/15 12:34:56;;;;;;;6.00;1.50;;;;;;;;;;5049852;28;20466;-70
2023/03/15 12:37:30;;;;;;;7.90;2.17;;;;;;;;;;5050848;28;20054;-70
2023/03/15 12:40:15;;;;;;;9.50;2.28;;;;;;;;;;5046721;28;20084;-71
2023/03/15 12:42:44;;;;;;;7.77;2.03;;;;;;;;;;5045433;28;20020;-70
2023/03/15 12:45:19;;;;;;;7.53;1.92;;;;;;;;;;5052889;28;20346;-70
2023/03/15 12:47:46;;;;;;;;;;;;;;;;;;5048227;28;20549;-71
2023/03/15 12:50:31;;;;;;;6.78;1.60;;;;;;;;;;5058800;28;20366;-70
2023/03/15 12:53:00;;;;;;;6.80;1.70;;;;;;;;;;5051895;28;20100;-70
2023/03/15 12:55:34;;;;;;;6.80;1.60;;;;;;;;;;5034318;28;20054;-72
2023/03/15 12:58:03;;;;;;;11.18;2.38;;;;;;;;;;5051570;28;20458;-70
2023/03/15 13:00:32;;;;;;;10.88;2.38;;;;;;;;;;5054300;28;20032;-70
2023/03/15 13:03:26;;;;;;;11.00;1.77;;;;;;;;;;5052230;28;20085;-71
2023/03/15 13:06:13;;;;;;;7.82;1.92;;;;;;;;;;5048138;28;20036;-71
2023/03/15 13:09:02;;;;;;;8.05;1.88;;;;;;;;;;5050899;28;20032;-70
2023/03/15 13:11:50;;;;;;;13.63;1.70;;;;;;;;;;5048498;28;20559;-70
2023/03/15 13:14:32;;;;;;;7.70;1.67;;;;;;;;;;5055283;28;20110;-70
2023/03/15 13:17:17;;;;;;;7.20;1.50;;;;;;;;;;5073135;27;20805;-73
2023/03/15 13:19:45;;;;;;;7.13;1.55;;;;;;;;;;5068007;28;20615;-71
2023/03/15 13:22:46;;;;;;;7.50;1.38;;;;;;;;;;5075944;28;20040;-72
2023/03/15 13:25:33;;;;;;;7.88;1.83;;;;;;;;;;5058790;28;20127;-71
2023/03/15 13:28:23;;;;;;;7.88;1.75;;;;;;;;;;5066573;28;20456;-70
2023/03/15 13:30:52;;;;;;;11.27;3.03;;;;;;;;;;5067843;27;20019;-70
2023/03/15 13:33:28;;;;;;;6.85;1.55;;;;;;;;;;5074139;28;20034;-70
2023/03/15 13:36:05;;;;;;;6.65;1.52;;;;;;;;;;5068272;28;22224;-70
2023/03/15 13:38:49;;;;;;;9.30;1.50;;;;;;;;;;5073732;28;20557;-71
2023/03/15 13:41:39;;;;;;;7.95;1.73;;;;;;;;;;5071827;27;20040;-71
2023/03/15 13:44:14;;;;;;;9.00;2.17;;;;;;;;;;5072046;28;20031;-70
2023/03/15 13:46:41;;;;;;;6.75;1.33;;;;;;;;;;5052696;28;20577;-70
2023/03/15 13:49:12;;;;;;;4.95;1.27;;;;;;;;;;5069718;28;20557;-72
2023/03/15 13:51:44;;;;;;;8.23;1.50;;;;;;;;;;5053953;28;20039;-71
2023/03/15 13:54:26;;;;;;;6.60;1.10;;;;;;;;;;5058001;28;20024;-71
2023/03/15 13:57:09;;;;;;;4.30;1.33;;;;;;;;;;5051932;28;20389;-71
2023/03/15 13:59:47;;;;;;;5.32;1.25;;;;;;;;;;5055919;28;20804;-71
2023/03/15 14:02:24;;;;;;;10.23;2.65;;;;;;;;;;5056852;28;20572;-71
2023/03/15 14:04:52;;;;;;;13.73;3.03;;;;;;;;;;5069746;28;20050;-70
2023/03/15 14:07:37;;;;;;;11.35;3.35;;;;;;;;;;5053323;28;20127;-71
2023/03/15 14:10:16;;;;;;;10.30;2.80;;;;;;;;;;5051062;28;20024;-71
2023/03/15 14:12:44;;;;;;;17.45;4.90;;;;;;;;;;5069800;28;20153;-71
2023/03/15 14:15:38;;;;;;;13.43;4.00;;;;;;;;;;5069119;28;20064;-73
2023/03/15 14:18:10;;;;;;;13.40;3.78;;;;;;;;;;5050912;28;20047;-70
2023/03/15 14:20:53;;;;;;;13.05;3.45;;;;;;;;;;5070422;28;20031;-70
2023/03/15 14:23:23;;;;;;;16.10;3.60;;;;;;;;;;5068839;28;20039;-70
2023/03/15 14:25:52;;;;;;;13.80;3.00;;;;;;;;;;5037757;28;20099;-69
2023/03/15 14:28:20;;;;;;;14.45;3.95;;;;;;;;;;5067173;28;20294;-70
2023/03/15 14:30:54;;;;;;;13.93;3.70;;;;;;;;;;5068384;28;20540;-70
2023/03/15 14:33:31;;;;;;;13.70;2.97;;;;;;;;;;5055088;28;20549;-70
2023/03/15 14:36:01;;;;;;;15.15;3.35;;;;;;;;;;5051316;28;20036;-70
2023/03/15 14:38:33;;;;;;;14.75;3.00;;;;;;;;;;5039542;28;20214;-71
2023/03/15 14:41:18;;;;;;;11.90;2.75;;;;;;;;;;5056520;28;20036;-70
2023/03/15 14:43:46;;;;;;;12.38;3.10;;;;;;;;;;5053866;27;20074;-71
2023/03/15 14:46:13;;;;;;;10.48;2.40;;;;;;;;;;5079595;27;20663;-71
2023/03/15 14:48:41;;;;;;;15.88;3.17;;;;;;;;;;5073560;28;20382;-71
2023/03/15 14:51:19;;;;;;;10.05;2.90;;;;;;;;;;5060355;28;20511;-71
2023/03/15 14:53:52;;;;;;;13.68;3.45;;;;;;;;;;5037454;28;20142;-71
2023/03/15 14:56:21;;;;;;;16.88;3.92;;;;;;;;;;5055326;28;20245;-71
2023/03/15 14:58:48;;;;;;;14.10;3.85;;;;;;;;;;5053983;28;20361;-70
2023/03/15 15:01:22;;;;;;;13.68;3.20;;;;;;;;;;5072345;27;20032;-71
2023/03/15 15:03:56;;;;;;;122.40;17.13;;;;;;;;;;5072082;27;20442;-72
2023/03/15 15:06:28;;;;;;;47.70;6.65;;;;;;;;;;5072868;28;20035;-70